sensor_id;sensor_type;location;lat;lon;timestamp;pressure;altitude;pressure_sealevel;temperature
11926;BMP180;6022;48.768;18.608;2022-08-05T00:01:30;98434.81;;;20.34
11926;BMP180;6022;48.768;18.608;2022-08-05T00:04:15;98434.50;;;20.29
11926;BMP180;6022;48.768;18.608;2022-08-05T00:06:43;98431.25;;;20.27
11926;BMP180;6022;48.768;18.608;2022-08-05T00:09:13;98426.75;;;20.21
11926;BMP180;6022;48.768;18.608;2022-08-05T00:11:46;98432.34;;;20.17
11926;BMP180;6022;48.768;18.608;2022-08-05T00:14:22;98434.28;;;20.15
11926;BMP180;6022;48.768;18.608;2022-08-05T00:16:55;98427.16;;;20.09
11926;BMP180;6022;48.768;18.608;2022-08-05T00:19:24;98421.50;;;20.06
11926;BMP180;6022;48.768;18.608;2022-08-05T00:22:10;98428.28;;;20.07
11926;BMP180;6022;48.768;18.608;2022-08-05T00:24:38;98426.81;;;20.04
11926;BMP180;6022;48.768;18.608;2022-08-05T00:27:08;98433.44;;;20.07
11926;BMP180;6022;48.768;18.608;2022-08-05T00:29:42;98434.53;;;20.04
11926;BMP180;6022;48.768;18.608;2022-08-05T00:32:10;98434.53;;;20.04
11926;BMP180;6022;48.768;18.608;2022-08-05T00:34:45;98419.41;;;20.01
11926;BMP180;6022;48.768;18.608;2022-08-05T00:37:33;98421.00;;;20.02
11926;BMP180;6022;48.768;18.608;2022-08-05T00:40:21;98424.75;;;20.08
11926;BMP180;6022;48.768;18.608;2022-08-05T00:42:57;98423.13;;;20.07
11926;BMP180;6022;48.768;18.608;2022-08-05T00:45:25;98422.50;;;20.05
11926;BMP180;6022;48.768;18.608;2022-08-05T00:48:16;98418.78;;;20.07
11926;BMP180;6022;48.768;18.608;2022-08-05T00:50:53;98413.63;;;20.07
11926;BMP180;6022;48.768;18.608;2022-08-05T00:53:22;98409.13;;;20.09
11926;BMP180;6022;48.768;18.608;2022-08-05T00:56:10;98415.88;;;20.10
11926;BMP180;6022;48.768;18.608;2022-08-05T00:58:38;98411.06;;;20.07
11926;BMP180;6022;48.768;18.608;2022-08-05T01:01:10;98408.00;;;20.04
11926;BMP180;6022;48.768;18.608;2022-08-05T01:03:39;98412.31;;;19.95
11926;BMP180;6022;48.768;18.608;2022-08-05T01:06:07;98411.19;;;19.98
11926;BMP180;6022;48.768;18.608;2022-08-05T01:08:41;98403.59;;;19.96
11926;BMP180;6022;48.768;18.608;2022-08-05T01:11:33;98405.25;;;19.97
11926;BMP180;6022;48.768;18.608;2022-08-05T01:14:12;98409.06;;;19.93
11926;BMP180;6022;48.768;18.608;2022-08-05T01:17:03;98409.25;;;19.92
11926;BMP180;6022;48.768;18.608;2022-08-05T01:28:36;98412.38;;;19.53
11926;BMP180;6022;48.768;18.608;2022-08-05T01:31:35;98405.56;;;19.44
11926;BMP180;6022;48.768;18.608;2022-08-05T01:34:38;98401.81;;;19.38
11926;BMP180;6022;48.768;18.608;2022-08-05T01:37:49;98398.59;;;19.36
11926;BMP180;6022;48.768;18.608;2022-08-05T01:40:23;98397.16;;;19.34
11926;BMP180;6022;48.768;18.608;2022-08-05T01:42:58;98402.28;;;19.34
11926;BMP180;6022;48.768;18.608;2022-08-05T01:45:30;98394.44;;;19.35
11926;BMP180;6022;48.768;18.608;2022-08-05T01:48:02;98398.75;;;19.35
11926;BMP180;6022;48.768;18.608;2022-08-05T01:50:39;98408.09;;;19.36
11926;BMP180;6022;48.768;18.608;2022-08-05T01:53:19;98406.03;;;19.39
11926;BMP180;6022;48.768;18.608;2022-08-05T01:56:10;98395.28;;;19.44
11926;BMP180;6022;48.768;18.608;2022-08-05T01:59:04;98397.38;;;19.48
11926;BMP180;6022;48.768;18.608;2022-08-05T02:01:35;98390.91;;;19.44
11926;BMP180;6022;48.768;18.608;2022-08-05T02:04:08;98399.00;;;19.49
11926;BMP180;6022;48.768;18.608;2022-08-05T02:06:38;98386.44;;;19.46
11926;BMP180;6022;48.768;18.608;2022-08-05T02:09:06;98378.56;;;19.48
11926;BMP180;6022;48.768;18.608;2022-08-05T02:14:39;98378.28;;;19.51
11926;BMP180;6022;48.768;18.608;2022-08-05T02:17:30;98372.16;;;19.52
11926;BMP180;6022;48.768;18.608;2022-08-05T02:20:22;98372.16;;;19.52
11926;BMP180;6022;48.768;18.608;2022-08-05T02:23:00;98379.06;;;19.51
11926;BMP180;6022;48.768;18.608;2022-08-05T02:25:35;98371.66;;;19.48
11926;BMP180;6022;48.768;18.608;2022-08-05T02:28:23;98377.28;;;19.52
11926;BMP180;6022;48.768;18.608;2022-08-05T02:31:06;98371.81;;;19.47
11926;BMP180;6022;48.768;18.608;2022-08-05T02:33:50;98369.41;;;19.45
11926;BMP180;6022;48.768;18.608;2022-08-05T02:36:26;98375.94;;;19.40
11926;BMP180;6022;48.768;18.608;2022-08-05T02:38:59;98374.78;;;19.34
11926;BMP180;6022;48.768;18.608;2022-08-05T02:41:29;98369.00;;;19.32
11926;BMP180;6022;48.768;18.608;2022-08-05T02:44:20;98375.91;;;19.32
11926;BMP180;6022;48.768;18.608;2022-08-05T02:46:50;98377.50;;;19.33
11926;BMP180;6022;48.768;18.608;2022-08-05T02:49:31;98378.47;;;19.32
11926;BMP180;6022;48.768;18.608;2022-08-05T02:52:08;98376.19;;;19.29
11926;BMP180;6022;48.768;18.608;2022-08-05T02:54:41;98372.97;;;19.27
11926;BMP180;6022;48.768;18.608;2022-08-05T02:57:20;98366.38;;;19.25
11926;BMP180;6022;48.768;18.608;2022-08-05T03:00:11;98376.81;;;19.23
11926;BMP180;6022;48.768;18.608;2022-08-05T03:02:43;98376.00;;;19.23
11926;BMP180;6022;48.768;18.608;2022-08-05T03:05:12;98372.13;;;19.19
11926;BMP180;6022;48.768;18.608;2022-08-05T03:07:42;98370.00;;;19.14
11926;BMP180;6022;48.768;18.608;2022-08-05T03:10:30;98377.84;;;19.13
11926;BMP180;6022;48.768;18.608;2022-08-05T03:12:59;98380.59;;;19.11
11926;BMP180;6022;48.768;18.608;2022-08-05T03:15:26;98375.13;;;19.14
11926;BMP180;6022;48.768;18.608;2022-08-05T03:17:54;98374.28;;;19.06
11926;BMP180;6022;48.768;18.608;2022-08-05T03:20:24;98378.84;;;18.94
11926;BMP180;6022;48.768;18.608;2022-08-05T03:22:54;98381.84;;;18.90
11926;BMP180;6022;48.768;18.608;2022-08-05T03:25:24;98373.28;;;18.82
11926;BMP180;6022;48.768;18.608;2022-08-05T03:28:13;98384.81;;;18.78
11926;BMP180;6022;48.768;18.608;2022-08-05T03:30:46;98378.34;;;18.74
11926;BMP180;6022;48.768;18.608;2022-08-05T03:33:14;98379.44;;;18.71
11926;BMP180;6022;48.768;18.608;2022-08-05T03:35:45;98383.91;;;18.69
11926;BMP180;6022;48.768;18.608;2022-08-05T03:38:13;98376.34;;;18.68
11926;BMP180;6022;48.768;18.608;2022-08-05T03:40:43;98382.31;;;18.68
11926;BMP180;6022;48.768;18.608;2022-08-05T03:43:15;98375.41;;;18.69
11926;BMP180;6022;48.768;18.608;2022-08-05T03:46:04;98374.47;;;18.70
11926;BMP180;6022;48.768;18.608;2022-08-05T03:48:34;98380.25;;;18.72
11926;BMP180;6022;48.768;18.608;2022-08-05T03:51:17;98377.09;;;18.78
11926;BMP180;6022;48.768;18.608;2022-08-05T03:57:04;98375.28;;;18.95
11926;BMP180;6022;48.768;18.608;2022-08-05T03:59:57;98371.22;;;19.02
11926;BMP180;6022;48.768;18.608;2022-08-05T04:02:30;98376.06;;;19.05
11926;BMP180;6022;48.768;18.608;2022-08-05T04:05:07;98373.28;;;19.24
11926;BMP180;6022;48.768;18.608;2022-08-05T04:07:38;98375.03;;;19.49
11926;BMP180;6022;48.768;18.608;2022-08-05T04:10:27;98380.53;;;19.54
11926;BMP180;6022;48.768;18.608;2022-08-05T04:13:04;98382.00;;;19.56
11926;BMP180;6022;48.768;18.608;2022-08-05T04:15:33;98380.88;;;19.59
11926;BMP180;6022;48.768;18.608;2022-08-05T04:18:06;98376.75;;;19.66
11926;BMP180;6022;48.768;18.608;2022-08-05T04:20:36;98377.41;;;19.68
11926;BMP180;6022;48.768;18.608;2022-08-05T04:23:08;98374.06;;;19.75
11926;BMP180;6022;48.768;18.608;2022-08-05T04:25:42;98372.03;;;19.86
11926;BMP180;6022;48.768;18.608;2022-08-05T04:28:27;98374.66;;;20.02
11926;BMP180;6022;48.768;18.608;2022-08-05T04:30:58;98371.66;;;20.14
11926;BMP180;6022;48.768;18.608;2022-08-05T04:33:28;98379.88;;;20.18
11926;BMP180;6022;48.768;18.608;2022-08-05T04:36:15;98369.28;;;20.37
11926;BMP180;6022;48.768;18.608;2022-08-05T04:39:03;98374.59;;;20.51
11926;BMP180;6022;48.768;18.608;2022-08-05T04:41:32;98369.03;;;20.71
11926;BMP180;6022;48.768;18.608;2022-08-05T04:44:05;98369.97;;;21.10
11926;BMP180;6022;48.768;18.608;2022-08-05T04:46:36;98369.81;;;21.19
11926;BMP180;6022;48.768;18.608;2022-08-05T04:49:06;98359.38;;;21.66
11926;BMP180;6022;48.768;18.608;2022-08-05T04:51:42;98360.19;;;22.87
11926;BMP180;6022;48.768;18.608;2022-08-05T04:54:10;98360.09;;;24.03
11926;BMP180;6022;48.768;18.608;2022-08-05T04:56:38;98362.91;;;25.26
11926;BMP180;6022;48.768;18.608;2022-08-05T04:59:06;98356.38;;;26.10
11926;BMP180;6022;48.768;18.608;2022-08-05T05:01:54;98355.34;;;26.70
11926;BMP180;6022;48.768;18.608;2022-08-05T05:04:34;98351.53;;;27.63
11926;BMP180;6022;48.768;18.608;2022-08-05T05:07:04;98352.41;;;28.74
11926;BMP180;6022;48.768;18.608;2022-08-05T05:09:35;98344.72;;;29.69
11926;BMP180;6022;48.768;18.608;2022-08-05T05:12:04;98350.38;;;30.02
11926;BMP180;6022;48.768;18.608;2022-08-05T05:14:33;98341.53;;;29.85
11926;BMP180;6022;48.768;18.608;2022-08-05T05:17:02;98345.88;;;30.09
11926;BMP180;6022;48.768;18.608;2022-08-05T05:19:35;98344.28;;;30.66
11926;BMP180;6022;48.768;18.608;2022-08-05T05:22:13;98354.59;;;30.79
11926;BMP180;6022;48.768;18.608;2022-08-05T05:24:50;98346.88;;;31.07
11926;BMP180;6022;48.768;18.608;2022-08-05T05:27:29;98352.31;;;30.94
11926;BMP180;6022;48.768;18.608;2022-08-05T05:30:15;98357.81;;;31.72
11926;BMP180;6022;48.768;18.608;2022-08-05T05:33:01;98354.34;;;32.44
11926;BMP180;6022;48.768;18.608;2022-08-05T05:35:44;98349.13;;;32.61
11926;BMP180;6022;48.768;18.608;2022-08-05T05:38:15;98346.69;;;32.87
11926;BMP180;6022;48.768;18.608;2022-08-05T05:40:54;98344.50;;;33.33
11926;BMP180;6022;48.768;18.608;2022-08-05T05:43:23;98341.09;;;33.16
11926;BMP180;6022;48.768;18.608;2022-08-05T05:46:10;98343.56;;;34.19
11926;BMP180;6022;48.768;18.608;2022-08-05T05:48:45;98341.72;;;34.40
11926;BMP180;6022;48.768;18.608;2022-08-05T05:51:23;98341.16;;;34.96
11926;BMP180;6022;48.768;18.608;2022-08-05T05:53:53;98341.69;;;35.75
11926;BMP180;6022;48.768;18.608;2022-08-05T05:56:26;98340.34;;;36.28
11926;BMP180;6022;48.768;18.608;2022-08-05T05:59:05;98335.63;;;36.45
11926;BMP180;6022;48.768;18.608;2022-08-05T06:01:39;98338.03;;;37.15
11926;BMP180;6022;48.768;18.608;2022-08-05T06:04:23;98330.66;;;38.05
11926;BMP180;6022;48.768;18.608;2022-08-05T06:06:50;98334.19;;;38.33
11926;BMP180;6022;48.768;18.608;2022-08-05T06:09:18;98339.44;;;38.86
11926;BMP180;6022;48.768;18.608;2022-08-05T06:12:06;98345.72;;;39.98
11926;BMP180;6022;48.768;18.608;2022-08-05T06:14:35;98333.19;;;39.00
11926;BMP180;6022;48.768;18.608;2022-08-05T06:17:06;98337.75;;;39.28
11926;BMP180;6022;48.768;18.608;2022-08-05T06:19:53;98340.75;;;39.91
11926;BMP180;6022;48.768;18.608;2022-08-05T06:22:34;98331.47;;;38.86
11926;BMP180;6022;48.768;18.608;2022-08-05T06:25:04;98325.34;;;38.86
11926;BMP180;6022;48.768;18.608;2022-08-05T06:27:53;98340.84;;;39.63
11926;BMP180;6022;48.768;18.608;2022-08-05T06:30:41;98343.06;;;39.28
11926;BMP180;6022;48.768;18.608;2022-08-05T06:33:08;98349.94;;;39.80
11926;BMP180;6022;48.768;18.608;2022-08-05T06:35:37;98333.16;;;39.57
11926;BMP180;6022;48.768;18.608;2022-08-05T06:38:24;98340.88;;;41.28
11926;BMP180;6022;48.768;18.608;2022-08-05T06:41:04;98343.06;;;41.52
11926;BMP180;6022;48.768;18.608;2022-08-05T06:43:35;98346.59;;;42.14
11926;BMP180;6022;48.768;18.608;2022-08-05T06:46:23;98337.94;;;41.69
11926;BMP180;6022;48.768;18.608;2022-08-05T06:48:57;98333.97;;;41.08
11926;BMP180;6022;48.768;18.608;2022-08-05T06:51:26;98340.41;;;41.79
11926;BMP180;6022;48.768;18.608;2022-08-05T06:54:02;98336.00;;;43.01
11926;BMP180;6022;48.768;18.608;2022-08-05T06:56:31;98337.31;;;42.12
11926;BMP180;6022;48.768;18.608;2022-08-05T06:59:05;98339.53;;;42.67
11926;BMP180;6022;48.768;18.608;2022-08-05T07:01:37;98334.94;;;43.02
11926;BMP180;6022;48.768;18.608;2022-08-05T07:04:06;98338.75;;;42.66
11926;BMP180;6022;48.768;18.608;2022-08-05T07:06:33;98336.28;;;43.90
11926;BMP180;6022;48.768;18.608;2022-08-05T07:09:02;98336.69;;;44.56
11926;BMP180;6022;48.768;18.608;2022-08-05T07:11:34;98343.69;;;45.27
11926;BMP180;6022;48.768;18.608;2022-08-05T07:14:06;98337.63;;;44.43
11926;BMP180;6022;48.768;18.608;2022-08-05T07:16:58;98336.91;;;45.22
11926;BMP180;6022;48.768;18.608;2022-08-05T07:19:49;98335.69;;;45.02
11926;BMP180;6022;48.768;18.608;2022-08-05T07:22:39;98339.38;;;44.56
11926;BMP180;6022;48.768;18.608;2022-08-05T07:25:08;98347.25;;;44.69
11926;BMP180;6022;48.768;18.608;2022-08-05T07:27:55;98338.28;;;45.44
11926;BMP180;6022;48.768;18.608;2022-08-05T07:30:36;98339.88;;;45.74
11926;BMP180;6022;48.768;18.608;2022-08-05T07:33:09;98337.56;;;45.19
11926;BMP180;6022;48.768;18.608;2022-08-05T07:35:44;98332.16;;;45.27
11926;BMP180;6022;48.768;18.608;2022-08-05T07:38:33;98338.41;;;45.85
11926;BMP180;6022;48.768;18.608;2022-08-05T07:41:14;98331.41;;;45.26
11926;BMP180;6022;48.768;18.608;2022-08-05T07:44:06;98333.34;;;44.17
11926;BMP180;6022;48.768;18.608;2022-08-05T07:46:47;98337.09;;;45.00
11926;BMP180;6022;48.768;18.608;2022-08-05T07:49:18;98335.91;;;44.72
11926;BMP180;6022;48.768;18.608;2022-08-05T07:51:47;98330.78;;;45.13
11926;BMP180;6022;48.768;18.608;2022-08-05T07:54:24;98341.75;;;45.82
11926;BMP180;6022;48.768;18.608;2022-08-05T07:57:03;98339.81;;;44.91
11926;BMP180;6022;48.768;18.608;2022-08-05T07:59:51;98329.75;;;43.06
11926;BMP180;6022;48.768;18.608;2022-08-05T08:02:25;98326.09;;;44.17
11926;BMP180;6022;48.768;18.608;2022-08-05T08:04:58;98328.63;;;44.64
11926;BMP180;6022;48.768;18.608;2022-08-05T08:07:26;98339.34;;;44.22
11926;BMP180;6022;48.768;18.608;2022-08-05T08:10:05;98333.75;;;43.47
11926;BMP180;6022;48.768;18.608;2022-08-05T08:12:34;98335.53;;;43.21
11926;BMP180;6022;48.768;18.608;2022-08-05T08:15:15;98339.63;;;44.21
11926;BMP180;6022;48.768;18.608;2022-08-05T08:17:44;98330.53;;;45.06
11926;BMP180;6022;48.768;18.608;2022-08-05T08:20:18;98327.44;;;45.24
11926;BMP180;6022;48.768;18.608;2022-08-05T08:23:05;98330.63;;;45.92
11926;BMP180;6022;48.768;18.608;2022-08-05T08:25:53;98337.38;;;45.23
11926;BMP180;6022;48.768;18.608;2022-08-05T08:28:29;98331.91;;;44.03
11926;BMP180;6022;48.768;18.608;2022-08-05T08:31:16;98334.06;;;43.15
11926;BMP180;6022;48.768;18.608;2022-08-05T08:33:45;98341.53;;;44.29
11926;BMP180;6022;48.768;18.608;2022-08-05T08:36:17;98338.69;;;45.01
11926;BMP180;6022;48.768;18.608;2022-08-05T08:39:06;98332.53;;;43.53
11926;BMP180;6022;48.768;18.608;2022-08-05T08:41:43;98332.88;;;44.99
11926;BMP180;6022;48.768;18.608;2022-08-05T08:44:31;98328.25;;;47.23
11926;BMP180;6022;48.768;18.608;2022-08-05T08:47:24;98334.56;;;48.49
11926;BMP180;6022;48.768;18.608;2022-08-05T08:50:12;98343.41;;;48.62
11926;BMP180;6022;48.768;18.608;2022-08-05T08:53:06;98334.63;;;48.38
11926;BMP180;6022;48.768;18.608;2022-08-05T08:55:39;98321.69;;;46.69
11926;BMP180;6022;48.768;18.608;2022-08-05T08:58:27;98326.91;;;47.29
11926;BMP180;6022;48.768;18.608;2022-08-05T09:01:10;98321.78;;;47.84
11926;BMP180;6022;48.768;18.608;2022-08-05T09:03:47;98329.22;;;48.38
11926;BMP180;6022;48.768;18.608;2022-08-05T09:06:25;98325.78;;;49.07
11926;BMP180;6022;48.768;18.608;2022-08-05T09:08:58;98316.75;;;47.94
11926;BMP180;6022;48.768;18.608;2022-08-05T09:11:27;98320.66;;;49.02
11926;BMP180;6022;48.768;18.608;2022-08-05T09:14:15;98317.63;;;48.49
11926;BMP180;6022;48.768;18.608;2022-08-05T09:17:10;98314.38;;;47.33
11926;BMP180;6022;48.768;18.608;2022-08-05T09:20:03;98315.38;;;46.85
11926;BMP180;6022;48.768;18.608;2022-08-05T09:23:12;98321.91;;;47.40
11926;BMP180;6022;48.768;18.608;2022-08-05T09:26:09;98314.31;;;48.16
11926;BMP180;6022;48.768;18.608;2022-08-05T09:28:50;98309.03;;;47.01
11926;BMP180;6022;48.768;18.608;2022-08-05T09:31:22;98299.84;;;46.70
11926;BMP180;6022;48.768;18.608;2022-08-05T09:34:11;98295.50;;;46.66
11926;BMP180;6022;48.768;18.608;2022-08-05T09:36:46;98287.34;;;47.06
11926;BMP180;6022;48.768;18.608;2022-08-05T09:39:25;98295.88;;;47.32
11926;BMP180;6022;48.768;18.608;2022-08-05T09:42:15;98287.09;;;46.99
11926;BMP180;6022;48.768;18.608;2022-08-05T09:44:55;98290.31;;;46.00
11926;BMP180;6022;48.768;18.608;2022-08-05T09:47:42;98289.91;;;46.18
11926;BMP180;6022;48.768;18.608;2022-08-05T09:50:36;98288.69;;;46.07
11926;BMP180;6022;48.768;18.608;2022-08-05T09:53:11;98283.69;;;45.03
11926;BMP180;6022;48.768;18.608;2022-08-05T09:56:01;98289.25;;;45.44
11926;BMP180;6022;48.768;18.608;2022-08-05T09:58:39;98284.63;;;45.07
11926;BMP180;6022;48.768;18.608;2022-08-05T10:01:11;98289.47;;;44.68
11926;BMP180;6022;48.768;18.608;2022-08-05T10:03:59;98283.00;;;45.60
11926;BMP180;6022;48.768;18.608;2022-08-05T10:06:26;98280.06;;;46.02
11926;BMP180;6022;48.768;18.608;2022-08-05T10:09:12;98276.91;;;45.51
11926;BMP180;6022;48.768;18.608;2022-08-05T10:12:09;98281.25;;;45.19
11926;BMP180;6022;48.768;18.608;2022-08-05T10:15:38;98275.69;;;43.30
11926;BMP180;6022;48.768;18.608;2022-08-05T10:18:17;98271.97;;;43.10
11926;BMP180;6022;48.768;18.608;2022-08-05T10:20:56;98283.38;;;43.87
11926;BMP180;6022;48.768;18.608;2022-08-05T10:23:36;98267.09;;;44.31
11926;BMP180;6022;48.768;18.608;2022-08-05T10:26:23;98264.72;;;44.38
11926;BMP180;6022;48.768;18.608;2022-08-05T10:29:01;98267.59;;;42.84
11926;BMP180;6022;48.768;18.608;2022-08-05T10:31:30;98266.25;;;43.33
11926;BMP180;6022;48.768;18.608;2022-08-05T10:34:18;98252.41;;;42.71
11926;BMP180;6022;48.768;18.608;2022-08-05T10:36:56;98256.22;;;42.78
11926;BMP180;6022;48.768;18.608;2022-08-05T10:39:32;98261.84;;;42.98
11926;BMP180;6022;48.768;18.608;2022-08-05T10:42:26;98265.50;;;43.11
11926;BMP180;6022;48.768;18.608;2022-08-05T10:45:01;98256.69;;;43.02
11926;BMP180;6022;48.768;18.608;2022-08-05T10:47:52;98263.38;;;43.76
11926;BMP180;6022;48.768;18.608;2022-08-05T10:51:04;98260.63;;;44.40
11926;BMP180;6022;48.768;18.608;2022-08-05T10:56:44;98254.91;;;43.28
11926;BMP180;6022;48.768;18.608;2022-08-05T10:59:29;98256.59;;;43.15
11926;BMP180;6022;48.768;18.608;2022-08-05T11:02:17;98259.81;;;43.42
11926;BMP180;6022;48.768;18.608;2022-08-05T11:05:09;98246.53;;;42.82
11926;BMP180;6022;48.768;18.608;2022-08-05T11:08:06;98250.50;;;42.93
11926;BMP180;6022;48.768;18.608;2022-08-05T11:10:54;98248.31;;;42.95
11926;BMP180;6022;48.768;18.608;2022-08-05T11:13:40;98239.66;;;42.68
11926;BMP180;6022;48.768;18.608;2022-08-05T11:16:24;98240.25;;;43.17
11926;BMP180;6022;48.768;18.608;2022-08-05T11:19:26;98236.13;;;42.81
11926;BMP180;6022;48.768;18.608;2022-08-05T11:22:44;98229.59;;;42.21
11926;BMP180;6022;48.768;18.608;2022-08-05T11:25:39;98231.66;;;42.24
11926;BMP180;6022;48.768;18.608;2022-08-05T11:33:52;98227.84;;;42.39
11926;BMP180;6022;48.768;18.608;2022-08-05T11:36:40;98220.97;;;42.68
11926;BMP180;6022;48.768;18.608;2022-08-05T11:39:09;98217.53;;;42.97
11926;BMP180;6022;48.768;18.608;2022-08-05T11:41:49;98215.88;;;42.80
11926;BMP180;6022;48.768;18.608;2022-08-05T11:44:36;98219.19;;;42.55
11926;BMP180;6022;48.768;18.608;2022-08-05T11:47:25;98216.13;;;42.26
11926;BMP180;6022;48.768;18.608;2022-08-05T11:50:13;98215.41;;;42.34
11926;BMP180;6022;48.768;18.608;2022-08-05T11:52:41;98211.41;;;42.23
11926;BMP180;6022;48.768;18.608;2022-08-05T11:55:15;98220.25;;;42.11
11926;BMP180;6022;48.768;18.608;2022-08-05T11:57:46;98216.50;;;42.33
11926;BMP180;6022;48.768;18.608;2022-08-05T12:00:33;98225.31;;;41.99
11926;BMP180;6022;48.768;18.608;2022-08-05T12:03:20;98217.38;;;41.72
11926;BMP180;6022;48.768;18.608;2022-08-05T12:06:01;98219.22;;;41.85
11926;BMP180;6022;48.768;18.608;2022-08-05T12:08:42;98216.91;;;41.57
11926;BMP180;6022;48.768;18.608;2022-08-05T12:11:22;98209.53;;;41.27
11926;BMP180;6022;48.768;18.608;2022-08-05T12:14:01;98214.25;;;40.58
11926;BMP180;6022;48.768;18.608;2022-08-05T12:16:35;98208.56;;;39.78
11926;BMP180;6022;48.768;18.608;2022-08-05T12:19:06;98213.06;;;39.60
11926;BMP180;6022;48.768;18.608;2022-08-05T12:21:56;98212.47;;;39.44
11926;BMP180;6022;48.768;18.608;2022-08-05T12:24:24;98209.69;;;39.54
11926;BMP180;6022;48.768;18.608;2022-08-05T12:26:53;98205.91;;;39.14
11926;BMP180;6022;48.768;18.608;2022-08-05T12:29:23;98190.16;;;38.99
11926;BMP180;6022;48.768;18.608;2022-08-05T12:31:58;98190.19;;;39.17
11926;BMP180;6022;48.768;18.608;2022-08-05T12:34:35;98192.69;;;38.86
11926;BMP180;6022;48.768;18.608;2022-08-05T12:37:07;98188.09;;;38.91
11926;BMP180;6022;48.768;18.608;2022-08-05T12:39:44;98186.94;;;39.25
11926;BMP180;6022;48.768;18.608;2022-08-05T12:42:19;98179.66;;;39.36
11926;BMP180;6022;48.768;18.608;2022-08-05T12:44:47;98182.19;;;38.71
11926;BMP180;6022;48.768;18.608;2022-08-05T12:47:29;98178.91;;;39.07
11926;BMP180;6022;48.768;18.608;2022-08-05T12:49:58;98180.63;;;38.70
11926;BMP180;6022;48.768;18.608;2022-08-05T12:52:34;98184.84;;;38.71
11926;BMP180;6022;48.768;18.608;2022-08-05T12:55:29;98182.63;;;38.21
11926;BMP180;6022;48.768;18.608;2022-08-05T12:57:59;98182.81;;;38.02
11926;BMP180;6022;48.768;18.608;2022-08-05T13:00:49;98174.13;;;37.86
11926;BMP180;6022;48.768;18.608;2022-08-05T13:03:38;98167.00;;;37.82
11926;BMP180;6022;48.768;18.608;2022-08-05T13:06:16;98165.56;;;37.61
11926;BMP180;6022;48.768;18.608;2022-08-05T13:08:47;98162.91;;;37.56
11926;BMP180;6022;48.768;18.608;2022-08-05T13:11:28;98157.53;;;37.23
11926;BMP180;6022;48.768;18.608;2022-08-05T13:14:22;98165.25;;;37.00
11926;BMP180;6022;48.768;18.608;2022-08-05T13:17:26;98159.00;;;36.76
11926;BMP180;6022;48.768;18.608;2022-08-05T13:20:11;98157.94;;;36.63
11926;BMP180;6022;48.768;18.608;2022-08-05T13:22:50;98161.09;;;36.55
11926;BMP180;6022;48.768;18.608;2022-08-05T13:25:19;98151.63;;;36.39
11926;BMP180;6022;48.768;18.608;2022-08-05T13:27:54;98146.59;;;36.13
11926;BMP180;6022;48.768;18.608;2022-08-05T13:30:23;98148.97;;;35.94
11926;BMP180;6022;48.768;18.608;2022-08-05T13:33:04;98156.88;;;36.09
11926;BMP180;6022;48.768;18.608;2022-08-05T13:35:35;98148.44;;;36.07
11926;BMP180;6022;48.768;18.608;2022-08-05T13:38:20;98154.22;;;35.99
11926;BMP180;6022;48.768;18.608;2022-08-05T13:41:02;98144.47;;;35.95
11926;BMP180;6022;48.768;18.608;2022-08-05T13:43:30;98149.47;;;36.06
11926;BMP180;6022;48.768;18.608;2022-08-05T13:46:21;98143.44;;;36.21
11926;BMP180;6022;48.768;18.608;2022-08-05T13:51:41;98136.25;;;35.72
11926;BMP180;6022;48.768;18.608;2022-08-05T13:54:14;98133.56;;;35.47
11926;BMP180;6022;48.768;18.608;2022-08-05T13:56:43;98132.31;;;35.74
11926;BMP180;6022;48.768;18.608;2022-08-05T13:59:22;98136.28;;;35.96
11926;BMP180;6022;48.768;18.608;2022-08-05T14:01:57;98133.38;;;35.98
11926;BMP180;6022;48.768;18.608;2022-08-05T14:04:30;98138.41;;;35.94
11926;BMP180;6022;48.768;18.608;2022-08-05T14:07:33;98136.28;;;35.87
11926;BMP180;6022;48.768;18.608;2022-08-05T14:10:22;98135.16;;;35.63
11926;BMP180;6022;48.768;18.608;2022-08-05T14:12:59;98133.53;;;35.52
11926;BMP180;6022;48.768;18.608;2022-08-05T14:15:28;98131.97;;;35.46
11926;BMP180;6022;48.768;18.608;2022-08-05T14:18:18;98121.91;;;35.38
11926;BMP180;6022;48.768;18.608;2022-08-05T14:20:50;98118.47;;;35.43
11926;BMP180;6022;48.768;18.608;2022-08-05T14:23:21;98120.88;;;35.44
11926;BMP180;6022;48.768;18.608;2022-08-05T14:25:55;98119.31;;;35.53
11926;BMP180;6022;48.768;18.608;2022-08-05T14:28:27;98119.81;;;35.50
11926;BMP180;6022;48.768;18.608;2022-08-05T14:30:56;98109.22;;;35.25
11926;BMP180;6022;48.768;18.608;2022-08-05T14:33:24;98102.84;;;35.21
11926;BMP180;6022;48.768;18.608;2022-08-05T14:35:51;98110.28;;;35.34
11926;BMP180;6022;48.768;18.608;2022-08-05T14:38:22;98106.59;;;35.35
11926;BMP180;6022;48.768;18.608;2022-08-05T14:41:02;98102.91;;;35.36
11926;BMP180;6022;48.768;18.608;2022-08-05T14:43:35;98100.22;;;35.26
11926;BMP180;6022;48.768;18.608;2022-08-05T14:46:25;98093.31;;;35.20
11926;BMP180;6022;48.768;18.608;2022-08-05T14:48:59;98099.09;;;35.12
11926;BMP180;6022;48.768;18.608;2022-08-05T14:51:46;98104.28;;;34.88
11926;BMP180;6022;48.768;18.608;2022-08-05T14:54:16;98097.28;;;34.62
11926;BMP180;6022;48.768;18.608;2022-08-05T14:56:57;98103.56;;;34.56
11926;BMP180;6022;48.768;18.608;2022-08-05T14:59:26;98096.47;;;34.57
11926;BMP180;6022;48.768;18.608;2022-08-05T15:02:04;98095.72;;;34.66
11926;BMP180;6022;48.768;18.608;2022-08-05T15:04:42;98093.53;;;34.53
11926;BMP180;6022;48.768;18.608;2022-08-05T15:07:14;98092.25;;;34.56
11926;BMP180;6022;48.768;18.608;2022-08-05T15:10:01;98085.91;;;34.57
11926;BMP180;6022;48.768;18.608;2022-08-05T15:12:29;98086.59;;;34.37
11926;BMP180;6022;48.768;18.608;2022-08-05T15:15:17;98090.81;;;34.33
11926;BMP180;6022;48.768;18.608;2022-08-05T15:18:04;98094.56;;;34.42
11926;BMP180;6022;48.768;18.608;2022-08-05T15:20:32;98088.22;;;34.43
11926;BMP180;6022;48.768;18.608;2022-08-05T15:23:05;98086.31;;;34.34
11926;BMP180;6022;48.768;18.608;2022-08-05T15:25:35;98084.13;;;34.26
11926;BMP180;6022;48.768;18.608;2022-08-05T15:28:20;98083.25;;;34.16
11926;BMP180;6022;48.768;18.608;2022-08-05T15:30:54;98086.66;;;34.11
11926;BMP180;6022;48.768;18.608;2022-08-05T15:33:21;98089.78;;;34.08
11926;BMP180;6022;48.768;18.608;2022-08-05T15:36:09;98081.88;;;34.08
11926;BMP180;6022;48.768;18.608;2022-08-05T15:38:44;98077.16;;;34.10
11926;BMP180;6022;48.768;18.608;2022-08-05T15:41:13;98075.25;;;34.01